Time;durP1;ratioP1;P1;durP2;ratioP2;P2;SDS_P1;SDS_P2;PMS_P1;PMS_P2;Temp;Humidity;BMP_temperature;BMP_pressure;BME280_temperature;BME280_humidity;BME280_pressure;Samples;Min_cycle;Max_cycle;Signal;HPM_P1;HPM_P2
2022/03/11 00:00:43;;;;;;;11.68;7.53;;;8.80;93.80;;;;;;5016784;28;20038;-70
2022/03/11 00:03:10;;;;;;;10.50;7.05;;;8.80;93.30;;;;;;5016695;28;20315;-69
2022/03/11 00:05:37;;;;;;;11.82;7.38;;;8.70;93.30;;;;;;5017320;28;20038;-69
2022/03/11 00:08:03;;;;;;;9.85;6.90;;;8.60;93.60;;;;;;5000009;28;20022;-70
2022/03/11 00:10:30;;;;;;;12.68;7.65;;;8.60;93.40;;;;;;5016671;28;20027;-70
2022/03/11 00:12:56;;;;;;;10.30;7.15;;;8.60;93.60;;;;;;5017057;28;20034;-70
2022/03/11 00:15:22;;;;;;;10.85;7.38;;;8.60;93.40;;;;;;5017930;28;20048;-70
2022/03/11 00:17:47;;;;;;;13.60;7.50;;;8.50;93.50;;;;;;5016765;28;20034;-70
2022/03/11 00:20:19;;;;;;;13.00;7.85;;;8.50;93.60;;;;;;5016932;28;20089;-70
2022/03/11 00:22:47;;;;;;;;;;;8.40;93.60;;;;;;5017554;28;20026;-70
2022/03/11 00:25:13;;;;;;;12.77;7.57;;;8.40;93.60;;;;;;5016432;28;19917;-70
2022/03/11 00:27:40;;;;;;;11.82;8.00;;;8.40;93.70;;;;;;5000133;28;20398;-70
2022/03/11 00:30:06;;;;;;;11.70;7.75;;;8.40;93.70;;;;;;5017165;28;20053;-70
2022/03/11 00:32:34;;;;;;;14.63;7.93;;;8.40;93.80;;;;;;5017546;28;20026;-70
2022/03/11 00:35:00;;;;;;;13.40;7.97;;;8.40;93.70;;;;;;5017204;28;20402;-71
2022/03/11 00:37:26;;;;;;;10.05;7.25;;;8.30;93.80;;;;;;5016705;28;20448;-71
2022/03/11 00:39:52;;;;;;;13.80;8.00;;;8.30;93.70;;;;;;5016495;28;20084;-70
2022/03/11 00:42:18;;;;;;;13.30;7.90;;;8.30;93.80;;;;;;5016742;28;20034;-70
2022/03/11 00:44:44;;;;;;;12.73;7.80;;;8.20;93.90;;;;;;5000677;28;20048;-70
2022/03/11 00:47:10;;;;;;;13.25;8.23;;;8.20;93.90;;;;;;5016985;28;20030;-71
2022/03/11 00:49:39;;;;;;;13.65;7.47;;;8.20;94.10;;;;;;5016320;28;20294;-71
2022/03/11 00:52:05;;;;;;;12.85;8.10;;;8.20;94.00;;;;;;5016963;28;20112;-71
2022/03/11 00:54:31;;;;;;;10.90;7.82;;;8.10;94.10;;;;;;5000015;28;20049;-71
2022/03/11 00:56:57;;;;;;;13.52;7.32;;;8.10;94.20;;;;;;5016269;28;20402;-70
2022/03/11 00:59:23;;;;;;;14.60;7.60;;;8.20;94.10;;;;;;5016943;28;20022;-70
2022/03/11 01:01:48;;;;;;;14.13;8.13;;;8.10;94.10;;;;;;5016807;28;20026;-70
2022/03/11 01:04:14;;;;;;;12.48;7.60;;;8.10;94.10;;;;;;5016277;28;20350;-70
2022/03/11 01:06:41;;;;;;;12.55;7.65;;;8.10;94.40;;;;;;5016063;28;20425;-70
2022/03/11 01:09:07;;;;;;;12.90;7.57;;;8.10;94.40;;;;;;5016859;28;20426;-69
2022/03/11 01:11:33;;;;;;;11.45;7.88;;;8.10;94.20;;;;;;5016739;28;20034;-69
2022/03/11 01:13:59;;;;;;;12.65;7.93;;;8.20;94.10;;;;;;5016821;28;20305;-70
2022/03/11 01:16:25;;;;;;;11.63;7.60;;;8.20;94.10;;;;;;5016637;28;20096;-70
2022/03/11 01:18:51;;;;;;;11.20;7.50;;;8.10;94.00;;;;;;5016165;28;20052;-70
2022/03/11 01:21:17;;;;;;;12.85;7.63;;;8.10;94.10;;;;;;5018447;28;20380;-70
2022/03/11 01:23:43;;;;;;;11.75;7.55;;;8.10;94.30;;;;;;5019716;28;20034;-70
2022/03/11 01:26:11;;;;;;;11.95;7.38;;;8.10;94.30;;;;;;5020445;28;20282;-70
2022/03/11 01:28:41;;;;;;;11.50;7.63;;;8.10;94.10;;;;;;5019803;28;20030;-70
2022/03/11 01:31:11;;;;;;;10.98;7.18;;;8.10;94.00;;;;;;5020287;28;20041;-70
2022/03/11 01:33:41;;;;;;;11.50;7.38;;;8.00;94.10;;;;;;5020407;28;20397;-70
2022/03/11 01:36:08;;;;;;;12.10;7.30;;;8.00;94.30;;;;;;5020744;28;20030;-70
2022/03/11 01:38:34;;;;;;;11.05;7.10;;;8.00;94.30;;;;;;5020166;28;20030;-70
2022/03/11 01:41:00;;;;;;;8.82;6.88;;;7.90;94.40;;;;;;5020244;28;20037;-70
2022/03/11 01:43:28;;;;;;;11.05;7.30;;;7.90;94.50;;;;;;5019932;28;20053;-71
2022/03/11 01:45:56;;;;;;;11.02;6.82;;;7.80;94.40;;;;;;5035388;28;20034;-70
2022/03/11 01:48:22;;;;;;;13.13;7.15;;;7.80;94.60;;;;;;5019679;28;20026;-70
2022/03/11 01:50:48;;;;;;;11.65;7.15;;;7.80;94.60;;;;;;5019997;28;20106;-71
2022/03/11 01:53:14;;;;;;;10.18;6.25;;;7.80;94.40;;;;;;5019312;28;20034;-71
2022/03/11 01:55:42;;;;;;;9.90;7.20;;;7.80;94.50;;;;;;5019950;28;20034;-71
2022/03/11 01:58:08;;;;;;;9.63;7.07;;;7.80;94.60;;;;;;5019930;28;20030;-71
2022/03/11 02:00:38;;;;;;;10.05;7.28;;;7.70;94.50;;;;;;5019095;28;20033;-71
2022/03/11 02:03:05;;;;;;;12.35;7.60;;;7.70;94.70;;;;;;5018907;28;20038;-71
2022/03/11 02:05:31;;;;;;;11.23;6.70;;;7.70;94.70;;;;;;5019663;28;20287;-71
2022/03/11 02:08:00;;;;;;;10.70;6.88;;;7.80;94.50;;;;;;5019106;28;20069;-71
2022/03/11 02:10:27;;;;;;;11.15;7.30;;;7.70;94.40;;;;;;5019733;28;20026;-71
2022/03/11 02:12:53;;;;;;;11.05;6.72;;;7.70;94.50;;;;;;5018906;28;20038;-71
2022/03/11 02:15:19;;;;;;;12.23;7.20;;;7.80;94.40;;;;;;5019129;28;20029;-71
2022/03/11 02:17:44;;;;;;;11.60;7.05;;;7.80;94.40;;;;;;5019421;28;20117;-71
2022/03/11 02:20:11;;;;;;;10.43;6.30;;;7.80;94.20;;;;;;5019505;28;20045;-71
2022/03/11 02:22:40;;;;;;;10.95;6.78;;;7.80;94.30;;;;;;5018694;28;20042;-71
2022/03/11 02:25:07;;;;;;;10.10;6.68;;;7.90;94.20;;;;;;5002360;28;20017;-71
2022/03/11 02:27:38;;;;;;;11.02;6.95;;;7.80;94.00;;;;;;5018435;28;20133;-71
2022/03/11 02:30:18;;;;;;;11.73;7.05;;;7.80;94.10;;;;;;5019166;28;20022;-71
2022/03/11 02:32:45;;;;;;;9.38;6.60;;;7.80;94.10;;;;;;5018894;28;20069;-72
2022/03/11 02:35:11;;;;;;;11.55;6.53;;;7.80;94.10;;;;;;5019191;28;20029;-71
2022/03/11 02:37:37;;;;;;;11.38;7.07;;;7.80;94.00;;;;;;5002207;28;20048;-70
2022/03/11 02:40:04;;;;;;;10.52;7.03;;;7.80;94.00;;;;;;5019082;28;20416;-71
2022/03/11 02:42:30;;;;;;;10.00;6.93;;;7.70;94.10;;;;;;5018799;28;20294;-69
2022/03/11 02:45:01;;;;;;;10.32;6.35;;;7.70;94.50;;;;;;5018365;28;20038;-71
2022/03/11 02:47:27;;;;;;;10.52;6.38;;;7.70;94.20;;;;;;5019157;28;20065;-70
2022/03/11 02:49:53;;;;;;;13.80;6.68;;;7.70;94.10;;;;;;5019684;28;20028;-71
2022/03/11 02:52:19;;;;;;;10.88;7.00;;;7.70;94.10;;;;;;5018556;28;20105;-70
2022/03/11 02:54:46;;;;;;;9.70;6.80;;;7.70;94.20;;;;;;5018298;28;20029;-70
2022/03/11 02:57:12;;;;;;;15.55;7.70;;;7.70;94.20;;;;;;5018917;28;20068;-70
2022/03/11 02:59:37;;;;;;;11.35;6.50;;;7.60;94.30;;;;;;5018076;28;20308;-70
2022/03/11 03:02:04;;;;;;;11.68;6.78;;;7.60;94.10;;;;;;5018687;28;20356;-70
2022/03/11 03:04:30;;;;;;;10.77;6.60;;;7.70;94.10;;;;;;5018632;28;20038;-70
2022/03/11 03:06:56;;;;;;;9.88;6.55;;;7.60;94.10;;;;;;5018619;28;20033;-70
2022/03/11 03:09:22;;;;;;;11.02;7.57;;;7.60;94.30;;;;;;5018761;28;20034;-70
2022/03/11 03:11:48;;;;;;;14.60;7.05;;;7.60;94.30;;;;;;5018480;28;20030;-70
2022/03/11 03:14:14;;;;;;;10.73;7.43;;;7.60;94.40;;;;;;5018388;28;20034;-70
2022/03/11 03:16:39;;;;;;;10.77;6.65;;;7.50;94.30;;;;;;5018655;28;20113;-70
2022/03/11 03:19:05;;;;;;;11.65;7.22;;;7.50;94.50;;;;;;5018361;28;20173;-69
2022/03/11 03:21:31;;;;;;;12.43;7.28;;;7.40;94.40;;;;;;5018634;28;20042;-70
2022/03/11 03:23:57;;;;;;;13.18;7.13;;;7.40;94.60;;;;;;5017462;28;20302;-70
2022/03/11 03:26:22;;;;;;;11.23;7.55;;;7.40;94.50;;;;;;5017541;28;20040;-70
2022/03/11 03:28:49;;;;;;;10.18;6.70;;;7.30;94.70;;;;;;5018159;28;20402;-70
2022/03/11 03:31:24;;;;;;;9.88;6.97;;;7.30;94.70;;;;;;5035115;28;20030;-70
2022/03/11 03:33:50;;;;;;;15.82;7.38;;;7.30;94.70;;;;;;5018166;28;20029;-70
2022/03/11 03:36:16;;;;;;;10.85;6.43;;;7.50;94.60;;;;;;5017977;28;20117;-71
2022/03/11 03:38:42;;;;;;;10.70;7.68;;;7.30;94.70;;;;;;5017823;28;20350;-70
2022/03/11 03:41:08;;;;;;;10.45;6.95;;;7.20;94.80;;;;;;5017994;28;20408;-70
2022/03/11 03:43:34;;;;;;;9.93;7.07;;;7.30;95.20;;;;;;5016269;28;20100;-70
2022/03/11 03:46:00;;;;;;;9.15;6.82;;;7.20;94.60;;;;;;5017883;28;20030;-70
2022/03/11 03:48:26;;;;;;;10.20;6.70;;;7.20;94.90;;;;;;5017684;28;20049;-70
2022/03/11 03:50:52;;;;;;;11.95;6.55;;;7.20;94.60;;;;;;5017716;28;20386;-70
2022/03/11 03:53:18;;;;;;;10.57;6.75;;;7.30;94.70;;;;;;5017753;28;20056;-70
2022/03/11 03:55:44;;;;;;;9.52;6.53;;;7.20;94.70;;;;;;5016908;28;20034;-70
2022/03/11 03:58:10;;;;;;;9.07;6.45;;;7.10;94.70;;;;;;5016974;28;20464;-70
2022/03/11 04:00:36;;;;;;;11.48;6.82;;;7.10;94.90;;;;;;5017470;28;20041;-70
2022/03/11 04:03:01;;;;;;;9.52;6.60;;;7.20;94.90;;;;;;5016765;28;20309;-70
2022/03/11 04:05:27;;;;;;;10.15;7.00;;;7.20;94.60;;;;;;5017393;28;20045;-70
2022/03/11 04:07:54;;;;;;;11.75;7.00;;;7.20;94.60;;;;;;5017772;28;20026;-69
2022/03/11 04:10:20;;;;;;;9.07;6.68;;;7.30;94.40;;;;;;5016751;28;20033;-70
2022/03/11 04:12:46;;;;;;;10.10;6.50;;;7.30;94.30;;;;;;5016717;28;20029;-70
2022/03/11 04:15:12;;;;;;;9.38;6.30;;;7.30;94.30;;;;;;5017087;28;20426;-71
2022/03/11 04:17:38;;;;;;;10.80;6.55;;;7.30;94.30;;;;;;5016493;28;20042;-71
2022/03/11 04:20:05;;;;;;;11.40;6.47;;;7.20;94.30;;;;;;5017316;28;20092;-71
2022/03/11 04:22:31;;;;;;;9.82;6.47;;;7.20;94.30;;;;;;5016551;28;20060;-71
2022/03/11 04:24:57;;;;;;;13.18;7.35;;;7.30;94.10;;;;;;5017659;28;20066;-71
2022/03/11 04:27:23;;;;;;;11.18;6.53;;;7.30;94.10;;;;;;5049485;28;20033;-70
2022/03/11 04:29:49;;;;;;;11.60;7.82;;;7.40;94.00;;;;;;5000116;28;20402;-70
2022/03/11 04:32:18;;;;;;;9.75;6.65;;;7.40;93.90;;;;;;5016238;28;20041;-69
2022/03/11 04:34:47;;;;;;;9.77;6.13;;;7.30;94.20;;;;;;5017143;28;20045;-70
2022/03/11 04:37:13;;;;;;;9.77;6.80;;;7.30;94.10;;;;;;5017023;28;20038;-69
2022/03/11 04:39:38;;;;;;;9.88;6.40;;;7.30;94.00;;;;;;4999906;28;20041;-70
2022/03/11 04:42:09;;;;;;;10.30;6.75;;;7.30;94.00;;;;;;5016148;28;20048;-71
2022/03/11 04:44:35;;;;;;;9.80;6.32;;;7.30;94.00;;;;;;5016850;28;20042;-70
2022/03/11 04:47:01;;;;;;;9.20;6.15;;;7.30;94.00;;;;;;5016465;28;20030;-69
2022/03/11 04:49:27;;;;;;;11.43;6.43;;;7.20;94.00;;;;;;5016234;28;20317;-70
2022/03/11 04:51:53;;;;;;;9.10;6.03;;;7.20;94.10;;;;;;5017412;28;20088;-70
2022/03/11 04:54:19;;;;;;;9.38;6.72;;;7.20;94.20;;;;;;5018458;28;20030;-70
2022/03/11 04:56:44;;;;;;;8.48;5.80;;;7.20;94.20;;;;;;5020261;28;20184;-70
2022/03/11 04:59:10;;;;;;;9.40;6.68;;;7.30;94.10;;;;;;5003986;28;20436;-70
2022/03/11 05:01:36;;;;;;;12.07;6.78;;;7.30;94.00;;;;;;5020214;28;20053;-70
2022/03/11 05:04:02;;;;;;;8.52;6.18;;;7.30;93.90;;;;;;5019976;28;20034;-70
2022/03/11 05:06:27;;;;;;;9.20;6.72;;;7.30;93.90;;;;;;5020806;28;20100;-70
2022/03/11 05:08:53;;;;;;;11.73;7.10;;;7.30;94.10;;;;;;5020699;28;20040;-70
2022/03/11 05:11:19;;;;;;;8.70;6.35;;;7.20;94.20;;;;;;5019962;28;20401;-70
2022/03/11 05:13:45;;;;;;;9.60;6.53;;;7.10;94.30;;;;;;5003426;28;20137;-70
2022/03/11 05:16:11;;;;;;;11.57;6.72;;;7.10;94.60;;;;;;5019895;28;20424;-70
2022/03/11 05:18:36;;;;;;;8.45;6.65;;;7.10;94.60;;;;;;5019800;28;20113;-69
2022/03/11 05:21:03;;;;;;;11.77;6.80;;;7.10;94.40;;;;;;5004233;28;20037;-70
2022/03/11 05:23:29;;;;;;;10.93;6.68;;;7.10;94.30;;;;;;5019606;28;20038;-70
2022/03/11 05:25:55;;;;;;;10.82;6.85;;;7.10;94.50;;;;;;5020362;28;20283;-70
2022/03/11 05:28:21;;;;;;;10.50;6.88;;;7.10;94.40;;;;;;5020364;28;20105;-70
2022/03/11 05:30:47;;;;;;;10.50;6.75;;;7.10;94.40;;;;;;5036061;28;20041;-70
2022/03/11 05:33:14;;;;;;;11.32;6.72;;;7.00;94.80;;;;;;5020462;28;20037;-70
2022/03/11 05:35:41;;;;;;;10.05;6.40;;;7.10;94.50;;;;;;5020174;28;20038;-70
2022/03/11 05:38:07;;;;;;;10.15;6.30;;;7.10;94.70;;;;;;5020069;28;20097;-70
2022/03/11 05:40:34;;;;;;;11.20;6.57;;;7.00;94.80;;;;;;5020088;28;20330;-70
2022/03/11 05:43:01;;;;;;;9.68;6.45;;;7.00;95.00;;;;;;5019117;28;20394;-69
2022/03/11 05:45:26;;;;;;;10.80;6.50;;;7.00;95.10;;;;;;5020634;28;20076;-69
2022/03/11 05:47:52;;;;;;;12.50;7.32;;;6.90;95.00;;;;;;5019246;28;20096;-69
2022/03/11 05:50:18;;;;;;;10.20;5.95;;;6.90;95.50;;;;;;5019984;28;20385;-69
2022/03/11 05:52:44;;;;;;;11.48;6.13;;;6.80;95.40;;;;;;5019648;28;20053;-70
2022/03/11 05:55:11;;;;;;;11.20;6.57;;;6.90;95.20;;;;;;5019146;28;20052;-70
2022/03/11 05:57:37;;;;;;;11.60;6.53;;;6.90;95.40;;;;;;5019804;28;20026;-69
2022/03/11 06:00:04;;;;;;;9.05;6.18;;;6.80;95.30;;;;;;5002718;28;20034;-70
2022/03/11 06:02:39;;;;;;;8.43;6.63;;;6.80;95.50;;;;;;5019011;28;20099;-70
2022/03/11 06:05:06;;;;;;;10.68;6.60;;;6.80;95.50;;;;;;5018913;28;20062;-70
2022/03/11 06:07:31;;;;;;;12.20;6.38;;;6.80;95.60;;;;;;5018900;28;20042;-70
2022/03/11 06:09:57;;;;;;;10.40;6.97;;;6.90;95.30;;;;;;5002423;28;20045;-70
2022/03/11 06:12:24;;;;;;;9.50;6.43;;;6.80;95.60;;;;;;5002575;28;20330;-70
2022/03/11 06:14:49;;;;;;;10.75;6.78;;;6.70;95.50;;;;;;5018824;28;20094;-69
2022/03/11 06:17:15;;;;;;;10.18;6.40;;;6.90;95.50;;;;;;5018431;28;20037;-69
2022/03/11 06:19:41;;;;;;;9.45;6.68;;;6.90;95.40;;;;;;5002416;28;20048;-70
2022/03/11 06:22:07;;;;;;;12.70;6.22;;;6.90;95.30;;;;;;5018661;28;20084;-70
2022/03/11 06:24:36;;;;;;;10.13;6.32;;;7.00;95.30;;;;;;5019418;28;20030;-70
2022/03/11 06:27:01;;;;;;;10.25;6.30;;;7.00;95.50;;;;;;5019408;28;20036;-71
2022/03/11 06:29:28;;;;;;;12.98;6.85;;;7.20;96.00;;;;;;5018613;28;20267;-71
2022/03/11 06:31:54;;;;;;;8.90;6.60;;;7.10;95.30;;;;;;5019225;28;20424;-71
2022/03/11 06:34:19;;;;;;;14.25;6.80;;;7.10;95.40;;;;;;5019272;28;20120;-70
2022/03/11 06:36:45;;;;;;;11.70;6.97;;;7.10;95.40;;;;;;5018934;28;20348;-70
2022/03/11 06:39:13;;;;;;;13.40;6.90;;;7.00;95.60;;;;;;5018666;28;20046;-71
2022/03/11 06:41:41;;;;;;;11.90;6.88;;;7.00;95.80;;;;;;5018302;28;20137;-71
2022/03/11 06:44:07;;;;;;;14.50;6.93;;;7.00;95.90;;;;;;5018717;28;20309;-71
2022/03/11 06:46:33;;;;;;;9.18;6.13;;;7.10;95.70;;;;;;5018211;28;20167;-70
2022/03/11 06:48:59;;;;;;;12.27;6.70;;;7.10;95.50;;;;;;5018090;28;20113;-69
2022/03/11 06:51:25;;;;;;;10.95;6.75;;;7.20;95.60;;;;;;5035433;28;20030;-69
2022/03/11 06:53:51;;;;;;;9.32;6.13;;;7.20;95.70;;;;;;5018784;28;20037;-69
2022/03/11 06:56:17;;;;;;;11.48;6.70;;;7.20;95.70;;;;;;5018041;28;20040;-68
2022/03/11 06:58:42;;;;;;;10.05;6.38;;;7.20;96.00;;;;;;5018674;28;20045;-70
2022/03/11 07:01:08;;;;;;;10.55;6.43;;;7.50;95.80;;;;;;5018464;28;20402;-68
2022/03/11 07:03:34;;;;;;;10.75;6.55;;;7.50;95.80;;;;;;5018501;28;20292;-70
2022/03/11 07:06:00;;;;;;;10.88;6.55;;;7.50;95.60;;;;;;5018486;28;20038;-71
2022/03/11 07:08:28;;;;;;;10.50;6.78;;;7.50;95.50;;;;;;5018834;28;20349;-69
2022/03/11 07:10:54;;;;;;;12.80;7.10;;;7.60;95.50;;;;;;5017849;28;20359;-70
2022/03/11 07:13:20;;;;;;;11.73;6.88;;;7.70;95.60;;;;;;5034068;28;20100;-70
2022/03/11 07:15:46;;;;;;;11.18;6.93;;;7.70;95.80;;;;;;5017496;28;20113;-70
2022/03/11 07:18:12;;;;;;;9.48;6.40;;;7.80;95.60;;;;;;5016526;28;20129;-70
2022/03/11 07:20:38;;;;;;;10.65;6.55;;;7.90;95.50;;;;;;5001355;28;20429;-71
2022/03/11 07:23:04;;;;;;;12.00;6.55;;;8.00;95.40;;;;;;5018491;28;20045;-70
2022/03/11 07:25:30;;;;;;;10.98;6.90;;;8.10;95.40;;;;;;5001310;28;20037;-70
2022/03/11 07:27:56;;;;;;;9.15;6.57;;;8.10;95.40;;;;;;5017582;28;20034;-70
2022/03/11 07:30:22;;;;;;;12.57;6.25;;;8.20;95.20;;;;;;5017597;28;20473;-71
2022/03/11 07:32:50;;;;;;;9.63;6.72;;;8.90;98.20;;;;;;5017546;28;20125;-71
2022/03/11 07:35:15;;;;;;;12.75;7.28;;;8.80;94.70;;;;;;5017411;28;20306;-70
2022/03/11 07:37:41;;;;;;;13.52;7.18;;;8.80;94.70;;;;;;5001201;28;20050;-72
2022/03/11 07:40:14;;;;;;;9.27;6.50;;;8.60;94.80;;;;;;5095524;28;20409;-70
2022/03/11 07:42:42;;;;;;;9.80;6.70;;;8.70;94.80;;;;;;5095005;28;20405;-71
2022/03/11 07:45:13;;;;;;;14.27;6.95;;;8.60;95.00;;;;;;5093761;28;20024;-71
2022/03/11 07:47:41;;;;;;;11.35;6.85;;;8.70;95.80;;;;;;5094703;28;20056;-71
2022/03/11 07:50:07;;;;;;;10.20;7.18;;;8.70;94.90;;;;;;5094455;28;20123;-71
2022/03/11 07:52:33;;;;;;;13.10;6.88;;;8.80;95.00;;;;;;5093596;28;20059;-70
2022/03/11 07:54:59;;;;;;;11.10;6.80;;;8.80;95.30;;;;;;5093632;28;20052;-71
2022/03/11 07:57:25;;;;;;;12.15;7.35;;;8.90;95.00;;;;;;5094161;28;20074;-70
2022/03/11 07:59:51;;;;;;;12.65;7.38;;;9.00;94.90;;;;;;5093337;28;20043;-71
2022/03/11 08:02:17;;;;;;;11.30;7.18;;;9.10;94.60;;;;;;5093332;28;20032;-72
2022/03/11 08:04:42;;;;;;;11.85;7.00;;;9.10;94.90;;;;;;5094032;28;20024;-72
2022/03/11 08:07:10;;;;;;;9.20;6.72;;;9.20;94.70;;;;;;5094144;28;20044;-72
2022/03/11 08:09:38;;;;;;;14.48;6.93;;;9.30;94.80;;;;;;5093235;28;20024;-72
2022/03/11 08:12:04;;;;;;;11.73;6.97;;;9.30;94.80;;;;;;5093164;28;20390;-72
2022/03/11 08:14:31;;;;;;;10.65;7.15;;;9.40;94.60;;;;;;5076189;28;20032;-71
2022/03/11 08:16:58;;;;;;;10.88;7.07;;;9.50;94.70;;;;;;5092951;28;20126;-71
2022/03/11 08:19:24;;;;;;;11.68;6.90;;;9.50;94.70;;;;;;5092838;28;20040;-71
2022/03/11 08:21:54;;;;;;;10.60;7.10;;;9.60;94.80;;;;;;5076228;28;20132;-70
2022/03/11 08:24:21;;;;;;;12.40;7.00;;;9.70;94.70;;;;;;5093016;28;20409;-70
2022/03/11 08:26:48;;;;;;;10.90;7.00;;;9.90;94.90;;;;;;5093135;28;20482;-71
2022/03/11 08:29:15;;;;;;;10.82;6.68;;;9.90;94.60;;;;;;5075914;28;20464;-69
2022/03/11 08:31:40;;;;;;;12.18;6.93;;;9.90;94.80;;;;;;5093259;28;20036;-70
2022/03/11 08:34:06;;;;;;;15.48;7.57;;;10.00;95.10;;;;;;5109693;28;20294;-70
2022/03/11 08:36:32;;;;;;;9.45;6.50;;;10.10;95.20;;;;;;5092647;28;20361;-70
2022/03/11 08:38:58;;;;;;;10.82;6.63;;;10.20;95.10;;;;;;5092388;28;20048;-70
2022/03/11 08:41:27;;;;;;;10.20;6.88;;;10.20;95.00;;;;;;5093299;28;20021;-71
2022/03/11 08:43:53;;;;;;;11.30;7.13;;;10.30;95.20;;;;;;5075852;28;20029;-71
2022/03/11 08:46:19;;;;;;;12.70;7.18;;;10.30;95.30;;;;;;5075597;28;20029;-72
2022/03/11 08:48:44;;;;;;;10.48;7.60;;;10.40;95.40;;;;;;5075382;28;20094;-71
2022/03/11 08:51:11;;;;;;;9.48;6.72;;;10.40;95.60;;;;;;5082699;28;20044;-71
2022/03/11 08:53:37;;;;;;;11.30;7.13;;;10.50;95.50;;;;;;5079765;28;20052;-71
2022/03/11 08:56:03;;;;;;;12.13;7.18;;;10.50;95.60;;;;;;5062167;28;20067;-70
2022/03/11 08:58:29;;;;;;;10.35;7.35;;;10.60;95.80;;;;;;5079547;28;20102;-71
2022/03/11 09:00:56;;;;;;;12.05;6.78;;;10.70;96.00;;;;;;5079620;28;20033;-70
2022/03/11 09:03:22;;;;;;;12.13;7.25;;;10.80;96.50;;;;;;5078691;28;20024;-71
2022/03/11 09:05:48;;;;;;;11.45;7.35;;;10.80;96.10;;;;;;5079383;28;20090;-70
2022/03/11 09:08:14;;;;;;;12.00;6.80;;;10.80;96.20;;;;;;5079300;28;20343;-71
2022/03/11 09:10:40;;;;;;;11.38;6.72;;;10.90;96.30;;;;;;5078987;28;20039;-71
2022/03/11 09:13:06;;;;;;;12.75;7.18;;;11.00;96.70;;;;;;5078515;28;20056;-70
2022/03/11 09:15:32;;;;;;;11.25;7.32;;;11.10;96.50;;;;;;5078535;28;20396;-71
2022/03/11 09:17:58;;;;;;;11.57;7.03;;;11.10;96.70;;;;;;5079047;28;20032;-70
2022/03/11 09:20:24;;;;;;;13.65;7.18;;;11.10;96.70;;;;;;5078426;28;20377;-71
2022/03/11 09:22:51;;;;;;;12.10;7.15;;;11.00;97.10;;;;;;5078301;28;20380;-70
2022/03/11 09:25:18;;;;;;;9.38;6.90;;;11.10;97.00;;;;;;5079026;28;20029;-71
2022/03/11 09:27:45;;;;;;;8.70;6.20;;;11.20;97.20;;;;;;5061812;28;20359;-71
2022/03/11 09:30:12;;;;;;;9.85;6.60;;;11.40;97.20;;;;;;5078096;28;20040;-71
2022/03/11 09:32:37;;;;;;;8.48;6.43;;;11.50;97.10;;;;;;5061238;28;20399;-70
2022/03/11 09:35:07;;;;;;;9.40;6.63;;;11.50;97.20;;;;;;5078738;28;20059;-70
2022/03/11 09:37:34;;;;;;;9.55;6.40;;;11.60;97.20;;;;;;5078812;28;20067;-70
2022/03/11 09:40:01;;;;;;;8.93;6.65;;;11.50;97.20;;;;;;5078475;28;20049;-71
2022/03/11 09:42:28;;;;;;;10.07;6.70;;;11.60;97.50;;;;;;5078333;28;20090;-71
2022/03/11 09:44:55;;;;;;;10.82;6.63;;;11.70;97.30;;;;;;5061179;28;20372;-71
2022/03/11 09:47:22;;;;;;;14.25;7.05;;;11.70;97.50;;;;;;5077827;28;20351;-71
2022/03/11 09:49:49;;;;;;;10.52;6.68;;;11.80;97.40;;;;;;5061248;28;20033;-70
2022/03/11 09:52:16;;;;;;;8.63;6.68;;;11.80;97.40;;;;;;5078542;28;20032;-69
2022/03/11 09:54:41;;;;;;;9.98;6.40;;;11.80;97.60;;;;;;5061314;28;20457;-70
2022/03/11 09:57:08;;;;;;;10.95;6.50;;;11.60;97.80;;;;;;5078347;28;20028;-71
2022/03/11 09:59:34;;;;;;;9.02;6.40;;;11.60;98.10;;;;;;5078248;28;20029;-70
2022/03/11 10:02:00;;;;;;;10.82;6.72;;;11.70;98.60;;;;;;5077234;28;20033;-70
2022/03/11 10:04:26;;;;;;;9.68;5.97;;;11.90;98.70;;;;;;5078275;28;20028;-68
2022/03/11 10:06:52;;;;;;;10.30;6.85;;;12.00;98.50;;;;;;5078265;28;20021;-70
2022/03/11 10:09:18;;;;;;;9.60;6.47;;;12.20;98.40;;;;;;5077306;28;20273;-72
2022/03/11 10:11:54;;;;;;;15.07;6.78;;;12.30;98.10;;;;;;5078196;28;20043;-70
2022/03/11 10:14:34;;;;;;;10.48;6.05;;;12.50;98.00;;;;;;5077367;28;20050;-70
2022/03/11 10:17:04;;;;;;;11.38;6.78;;;12.60;98.40;;;;;;5078538;28;20032;-69
2022/03/11 10:19:30;;;;;;;10.25;6.65;;;12.80;97.80;;;;;;5077873;28;20025;-71
2022/03/11 10:22:00;;;;;;;9.85;6.60;;;12.90;97.70;;;;;;5077919;28;20036;-70
2022/03/11 10:24:27;;;;;;;10.63;6.55;;;13.00;97.80;;;;;;5077854;28;20056;-70
2022/03/11 10:26:58;;;;;;;9.15;6.28;;;13.20;97.40;;;;;;5077087;28;20020;-67
2022/03/11 10:29:27;;;;;;;7.40;5.68;;;13.30;97.60;;;;;;5060453;28;20048;-70
2022/03/11 10:31:55;;;;;;;11.52;6.53;;;13.50;97.10;;;;;;5077962;28;20335;-69
2022/03/11 10:34:33;;;;;;;7.78;6.30;;;13.50;96.90;;;;;;5077581;28;20074;-70
2022/03/11 10:37:12;;;;;;;8.45;6.38;;;13.70;97.00;;;;;;5077651;28;20025;-67
2022/03/11 10:39:39;;;;;;;9.68;6.60;;;14.00;96.40;;;;;;5076603;28;20048;-69
2022/03/11 10:42:24;;;;;;;7.15;5.80;;;14.50;96.10;;;;;;5060242;28;20024;-69
2022/03/11 10:45:00;;;;;;;10.43;6.22;;;14.90;95.50;;;;;;5077407;28;20124;-68
2022/03/11 10:47:34;;;;;;;9.68;5.97;;;15.10;94.80;;;;;;5077348;28;20032;-70
2022/03/11 10:50:06;;;;;;;7.78;6.03;;;15.40;94.60;;;;;;5059995;28;20138;-70
2022/03/11 10:52:40;;;;;;;8.35;6.20;;;15.90;94.80;;;;;;5077364;28;20060;-70
2022/03/11 10:55:26;;;;;;;7.55;5.78;;;16.20;93.90;;;;;;5077408;28;20036;-70
2022/03/11 10:57:54;;;;;;;7.68;5.47;;;16.30;93.60;;;;;;5077345;28;20032;-71
2022/03/11 11:00:21;;;;;;;7.50;6.15;;;16.30;93.80;;;;;;5077287;28;20111;-66
2022/03/11 11:02:49;;;;;;;8.48;5.78;;;16.60;93.90;;;;;;5077269;28;20357;-69
2022/03/11 11:05:15;;;;;;;8.30;5.63;;;16.80;93.20;;;;;;5059978;28;20029;-70
2022/03/11 11:07:41;;;;;;;9.48;5.95;;;16.80;93.40;;;;;;5077162;28;20104;-67
2022/03/11 11:10:09;;;;;;;8.43;6.25;;;16.90;93.60;;;;;;5060029;28;20120;-70
2022/03/11 11:12:35;;;;;;;9.70;5.93;;;17.10;93.20;;;;;;5076455;28;20036;-68
2022/03/11 11:15:03;;;;;;;8.80;6.10;;;16.90;93.50;;;;;;5059591;28;20097;-68
2022/03/11 11:17:30;;;;;;;6.45;5.53;;;17.80;93.20;;;;;;5076900;28;20308;-69
2022/03/11 11:20:01;;;;;;;9.57;5.63;;;18.00;92.50;;;;;;5059468;28;20032;-69
2022/03/11 11:22:29;;;;;;;13.32;5.80;;;17.50;93.70;;;;;;5075977;28;20037;-69
2022/03/11 11:24:56;;;;;;;9.65;5.40;;;17.50;93.60;;;;;;5059511;28;20016;-69
2022/03/11 11:27:23;;;;;;;12.93;5.40;;;17.70;93.60;;;;;;5043012;28;20075;-69
2022/03/11 11:29:50;;;;;;;5.30;4.80;;;17.90;93.30;;;;;;5076894;28;20396;-69
2022/03/11 11:32:19;;;;;;;5.55;4.97;;;18.20;93.60;;;;;;5076185;28;20308;-68
2022/03/11 11:34:48;;;;;;;5.43;4.45;;;18.60;93.30;;;;;;5076811;28;20032;-70
2022/03/11 11:37:38;;;;;;;7.80;4.90;;;18.80;92.70;;;;;;5076785;28;20029;-71
2022/03/11 11:40:23;;;;;;;8.40;4.80;;;19.10;92.70;;;;;;5076665;28;20079;-66
2022/03/11 11:43:14;;;;;;;6.45;4.90;;;19.60;92.10;;;;;;5076720;28;20033;-68
2022/03/11 11:45:43;;;;;;;6.20;4.80;;;19.90;91.90;;;;;;5076714;28;20446;-68
2022/03/11 11:51:05;;;;;;;6.20;4.63;;;19.50;91.90;;;;;;5076999;28;20039;-69
2022/03/11 11:53:40;;;;;;;7.05;4.75;;;19.70;91.50;;;;;;5076818;28;20033;-69
2022/03/11 11:56:34;;;;;;;5.32;4.63;;;19.60;91.70;;;;;;5076673;28;20415;-67
2022/03/11 11:59:03;;;;;;;5.97;4.97;;;19.60;91.30;;;;;;5074753;28;20451;-69
2022/03/11 12:01:50;;;;;;;6.30;4.97;;;19.70;92.00;;;;;;5076608;28;20120;-69
2022/03/11 12:04:29;;;;;;;7.00;4.55;;;20.00;91.20;;;;;;5076560;28;20029;-69
2022/03/11 12:06:55;;;;;;;6.50;4.85;;;20.50;90.80;;;;;;5076570;28;20307;-69
2022/03/11 12:09:39;;;;;;;5.57;4.78;;;20.20;90.60;;;;;;5076399;28;20043;-69
2022/03/11 12:12:06;;;;;;;5.25;4.18;;;19.70;91.30;;;;;;5058942;28;20072;-68
2022/03/11 12:14:33;;;;;;;5.13;4.50;;;19.30;91.80;;;;;;5075704;28;20033;-70
2022/03/11 12:17:07;;;;;;;7.65;4.63;;;19.80;91.60;;;;;;5076465;28;20047;-70
2022/03/11 12:19:46;;;;;;;6.03;5.38;;;19.80;91.70;;;;;;5076253;28;20051;-69
2022/03/11 12:22:31;;;;;;;8.00;4.85;;;20.30;90.90;;;;;;5076469;28;20109;-69
2022/03/11 12:25:02;;;;;;;5.63;4.25;;;20.30;90.70;;;;;;5076110;28;20032;-69
2022/03/11 12:28:02;;;;;;;5.30;4.22;;;20.10;90.60;;;;;;5080182;28;20032;-69
2022/03/11 12:30:46;;;;;;;6.45;4.90;;;20.50;90.90;;;;;;5079792;28;20049;-69
2022/03/11 12:33:19;;;;;;;4.65;4.15;;;20.30;90.30;;;;;;5079992;28;20021;-68
2022/03/11 12:35:48;;;;;;;5.38;4.50;;;19.90;91.00;;;;;;5079274;28;20028;-69
2022/03/11 12:38:16;;;;;;;6.45;4.00;;;20.20;90.90;;;;;;5079565;28;20040;-67
2022/03/11 12:40:43;;;;;;;4.95;4.22;;;20.80;90.00;;;;;;5079989;28;20025;-70
2022/03/11 12:43:11;;;;;;;9.10;4.32;;;20.50;90.20;;;;;;5079266;28;20399;-69
2022/03/11 12:45:46;;;;;;;5.55;4.75;;;20.40;90.20;;;;;;5062345;28;20033;-69
2022/03/11 12:48:19;;;;;;;5.53;4.20;;;20.80;89.80;;;;;;5079723;28;20116;-69
2022/03/11 12:50:47;;;;;;;5.72;3.80;;;21.40;89.90;;;;;;5079679;28;20024;-69
2022/03/11 12:53:14;;;;;;;6.60;4.53;;;22.00;86.40;;;;;;5079616;28;20025;-68